Time;durP1;ratioP1;P1;durP2;ratioP2;P2;SDS_P1;SDS_P2;PMS_P1;PMS_P2;Temp;Humidity;BMP_temperature;BMP_pressure;BME280_temperature;BME280_humidity;BME280_pressure;Samples;Min_cycle;Max_cycle;Signal;HPM_P1;HPM_P2
2022/07/09 00:01:16;;;;;;;25.70;15.10;;;;;;;18.01;85.74;102827.97;4973385;28;20411;-29
2022/07/09 00:03:41;;;;;;;29.02;16.55;;;;;;;17.99;85.53;102832.75;4973554;28;20419;-29
2022/07/09 00:06:06;;;;;;;35.42;17.60;;;;;;;17.96;85.75;102823.06;4973313;28;20038;-29
2022/07/09 00:08:32;;;;;;;36.22;18.23;;;;;;;17.94;85.63;102821.56;4973790;28;20082;-28
2022/07/09 00:10:57;;;;;;;37.85;18.50;;;;;;;17.93;85.81;102825.31;4973063;28;20027;-29
2022/07/09 00:13:23;;;;;;;35.88;19.55;;;;;;;17.90;86.15;102821.06;4973802;28;20058;-29
2022/07/09 00:15:48;;;;;;;48.75;23.50;;;;;;;17.88;86.12;102822.31;4973700;28;20427;-29
2022/07/09 00:18:13;;;;;;;36.08;20.63;;;;;;;17.81;86.19;102827.63;4973109;28;20035;-28
2022/07/09 00:20:39;;;;;;;41.33;20.55;;;;;;;17.80;86.21;102825.06;4972619;28;20043;-28
2022/07/09 00:23:04;;;;;;;35.47;19.40;;;;;;;17.76;86.88;102825.41;4973461;28;20074;-27
2022/07/09 00:25:29;;;;;;;42.05;20.55;;;;;;;17.76;87.13;102819.94;4971764;28;20358;-28
2022/07/09 00:27:55;;;;;;;41.60;19.58;;;;;;;17.73;87.37;102814.03;4973106;28;20502;-27
2022/07/09 00:30:20;;;;;;;42.85;20.20;;;;;;;17.74;87.64;102816.56;4973464;28;20654;-28
2022/07/09 00:32:45;;;;;;;36.95;22.08;;;;;;;17.76;87.58;102811.78;4971881;28;20077;-28
2022/07/09 00:35:11;;;;;;;51.47;21.63;;;;;;;17.68;87.67;102806.41;4972418;28;20043;-28
2022/07/09 00:37:36;;;;;;;38.70;21.33;;;;;;;17.67;87.62;102810.16;4968069;28;20030;-28
2022/07/09 00:40:02;;;;;;;40.70;21.13;;;;;;;17.66;87.80;102813.06;4972884;28;20118;-30
2022/07/09 00:42:28;;;;;;;36.22;21.70;;;;;;;17.65;87.82;102809.50;4970887;28;20117;-28
2022/07/09 00:44:53;;;;;;;37.85;20.25;;;;;;;17.65;88.14;102804.03;4973363;28;20027;-28
2022/07/09 00:47:18;;;;;;;35.53;20.73;;;;;;;17.64;88.05;102810.53;4973250;28;20062;-27
2022/07/09 00:49:44;;;;;;;32.63;20.17;;;;;;;17.62;87.94;102807.13;4972724;28;20033;-27
2022/07/09 00:52:11;;;;;;;40.38;21.45;;;;;;;17.64;87.99;102809.66;4970831;28;20034;-28
2022/07/09 00:54:37;;;;;;;35.17;19.67;;;;;;;17.64;87.82;102802.38;4972968;28;20113;-28
2022/07/09 00:57:04;;;;;;;41.42;20.83;;;;;;;17.63;87.51;102797.91;4972746;28;20045;-28
2022/07/09 00:59:29;;;;;;;46.50;22.77;;;;;;;17.59;87.73;102802.06;4941430;28;20058;-28
2022/07/09 01:01:55;;;;;;;40.28;20.63;;;;;;;17.55;87.78;102801.53;4971690;28;20376;-28
2022/07/09 01:04:21;;;;;;;39.40;20.13;;;;;;;17.55;87.84;102796.09;4972518;28;20130;-29
2022/07/09 01:06:46;;;;;;;33.22;17.92;;;;;;;17.55;87.84;102792.53;4972455;28;20030;-29
2022/07/09 01:09:13;;;;;;;33.25;17.13;;;;;;;17.53;87.52;102798.16;4966983;28;20082;-28
2022/07/09 01:11:39;;;;;;;35.35;18.45;;;;;;;17.53;87.75;102797.31;4971083;28;20059;-29
2022/07/09 01:14:04;;;;;;;29.42;17.02;;;;;;;17.51;87.45;102793.94;4972293;28;20054;-29
2022/07/09 01:16:37;;;;;;;32.65;16.42;;;;;;;17.50;87.59;102798.50;4972337;28;20033;-29
2022/07/09 01:19:03;;;;;;;24.33;14.10;;;;;;;17.50;87.57;102793.06;4970522;28;20386;-28
2022/07/09 01:21:28;;;;;;;25.05;12.82;;;;;;;17.50;87.76;102793.06;4971427;28;20429;-28
2022/07/09 01:23:53;;;;;;;27.73;13.30;;;;;;;17.54;87.96;102782.69;4972421;28;20038;-28
2022/07/09 01:26:22;;;;;;;21.75;12.00;;;;;;;17.59;88.05;102780.28;4971289;28;20097;-27
2022/07/09 01:28:47;;;;;;;20.50;11.43;;;;;;;17.65;88.14;102779.53;4965290;28;20043;-27
2022/07/09 01:31:13;;;;;;;20.10;11.35;;;;;;;17.70;87.79;102777.13;4953347;28;20031;-30
2022/07/09 01:33:39;;;;;;;22.83;10.77;;;;;;;17.74;87.90;102778.44;4967836;28;20023;-29
2022/07/09 01:36:05;;;;;;;23.08;9.70;;;;;;;17.73;87.83;102776.75;4971228;28;20144;-29
2022/07/09 01:38:31;;;;;;;17.60;9.05;;;;;;;17.75;87.69;102768.41;4971350;28;20046;-28
2022/07/09 01:40:57;;;;;;;18.90;8.45;;;;;;;17.76;87.53;102770.94;4970840;28;20026;-27
2022/07/09 01:43:22;;;;;;;18.42;8.50;;;;;;;17.75;87.57;102763.81;4972244;28;20054;-28
2022/07/09 01:45:47;;;;;;;15.48;8.20;;;;;;;17.73;87.49;102765.84;4972221;28;20034;-28
2022/07/09 01:48:13;;;;;;;17.42;8.07;;;;;;;17.70;87.20;102759.94;4972280;28;20034;-28
2022/07/09 01:50:38;;;;;;;14.18;7.88;;;;;;;17.67;87.36;102766.59;4972337;28;20031;-28
2022/07/09 01:53:04;;;;;;;13.77;7.32;;;;;;;17.66;87.25;102759.44;4972016;28;20030;-28
2022/07/09 01:55:29;;;;;;;12.38;7.70;;;;;;;17.61;87.34;102756.41;4972267;28;20035;-27
2022/07/09 01:57:55;;;;;;;15.93;7.22;;;;;;;17.58;87.50;102762.22;4971439;28;20027;-27
2022/07/09 02:00:20;;;;;;;10.50;8.05;;;;;;;17.55;87.49;102751.69;4971437;28;20427;-27
2022/07/09 02:02:46;;;;;;;17.33;7.97;;;;;;;17.49;87.39;102747.00;4971548;28;20038;-26
2022/07/09 02:05:11;;;;;;;20.45;8.13;;;;;;;17.44;87.67;102754.84;4971282;28;20395;-28
2022/07/09 02:07:36;;;;;;;14.70;8.05;;;;;;;17.37;87.86;102753.88;4972288;28;20039;-28
2022/07/09 02:10:03;;;;;;;18.55;8.43;;;;;;;17.30;88.25;102749.16;4971731;28;20140;-27
2022/07/09 02:12:28;;;;;;;12.30;7.53;;;;;;;17.27;88.34;102754.09;4972141;28;20482;-28
2022/07/09 02:14:54;;;;;;;18.42;7.35;;;;;;;17.26;88.64;102750.53;4971650;28;20030;-28
2022/07/09 02:17:20;;;;;;;17.23;7.45;;;;;;;17.27;88.60;102746.81;4971566;28;20165;-29
2022/07/09 02:19:45;;;;;;;15.52;6.82;;;;;;;17.25;88.59;102743.41;4971959;28;20463;-27
2022/07/09 02:22:10;;;;;;;11.32;6.10;;;;;;;17.28;88.85;102740.31;4971753;28;20039;-29
2022/07/09 02:24:36;;;;;;;15.98;6.70;;;;;;;17.29;88.47;102746.59;4971769;28;20023;-28
2022/07/09 02:27:01;;;;;;;13.15;6.82;;;;;;;17.32;88.69;102735.34;4949969;28;20043;-28
2022/07/09 02:29:27;;;;;;;12.65;6.10;;;;;;;17.38;88.72;102736.50;4971393;28;20031;-29
2022/07/09 02:31:54;;;;;;;13.20;5.78;;;;;;;17.44;88.49;102733.06;4970254;28;20118;-27
2022/07/09 02:34:20;;;;;;;;;;;;;;;17.50;88.19;102733.19;5013282;23;20100;-29
2022/07/09 02:36:45;;;;;;;10.43;5.40;;;;;;;17.54;87.83;102733.69;4984613;28;20235;-29
2022/07/09 02:39:10;;;;;;;13.95;5.50;;;;;;;17.59;87.78;102731.25;4984263;28;20393;-29
2022/07/09 02:41:36;;;;;;;10.60;5.20;;;;;;;17.64;87.53;102728.84;4992325;28;20530;-29
2022/07/09 02:44:01;;;;;;;13.55;6.07;;;;;;;17.65;87.35;102729.69;4989328;28;20536;-29
2022/07/09 02:46:26;;;;;;;11.38;6.03;;;;;;;17.68;87.60;102732.88;4975352;28;20387;-29
2022/07/09 02:48:52;;;;;;;14.07;5.90;;;;;;;17.73;87.61;102733.16;4972457;28;20580;-28
2022/07/09 02:51:17;;;;;;;10.93;6.03;;;;;;;17.80;87.19;102736.06;4979031;28;20034;-28
2022/07/09 02:53:42;;;;;;;8.93;5.38;;;;;;;17.86;87.18;102731.75;4975631;28;20069;-29
2022/07/09 02:56:08;;;;;;;15.05;5.43;;;;;;;17.89;86.59;102739.53;4974007;28;20050;-29
2022/07/09 02:58:33;;;;;;;10.30;5.40;;;;;;;17.94;87.11;102726.22;4973575;28;20096;-28
2022/07/09 03:00:59;;;;;;;12.57;5.20;;;;;;;17.96;86.96;102732.34;4973084;28;20121;-29
2022/07/09 03:03:24;;;;;;;8.98;5.00;;;;;;;17.96;86.90;102726.88;4973263;28;20411;-29
2022/07/09 03:05:50;;;;;;;11.38;5.30;;;;;;;17.91;86.84;102718.41;4973214;28;20039;-28
2022/07/09 03:08:16;;;;;;;12.75;6.60;;;;;;;17.87;87.05;102714.34;4978362;28;20061;-29
2022/07/09 03:10:41;;;;;;;13.50;6.03;;;;;;;17.86;87.26;102716.25;4993319;28;20042;-29
2022/07/09 03:13:06;;;;;;;15.10;6.55;;;;;;;17.86;87.03;102704.50;4972333;28;20078;-31
2022/07/09 03:15:32;;;;;;;14.45;7.35;;;;;;;17.85;87.36;102709.13;4972352;28;20037;-29
2022/07/09 03:17:57;;;;;;;10.55;5.82;;;;;;;17.86;87.68;102702.63;4975715;28;20118;-30
2022/07/09 03:20:22;;;;;;;14.57;6.95;;;;;;;17.87;87.39;102706.19;4976340;28;20039;-31
2022/07/09 03:22:48;;;;;;;12.75;6.70;;;;;;;17.86;87.54;102701.78;4975991;28;20074;-31
2022/07/09 03:25:13;;;;;;;16.55;5.97;;;;;;;17.87;87.51;102692.56;4975806;28;20045;-30
2022/07/09 03:27:38;;;;;;;13.38;6.55;;;;;;;17.87;87.44;102696.13;4974378;28;20423;-30
2022/07/09 03:30:05;;;;;;;11.65;6.53;;;;;;;17.88;87.70;102699.72;4974408;28;20035;-31
2022/07/09 03:32:30;;;;;;;11.63;6.78;;;;;;;17.91;87.66;102699.34;4975679;28;20033;-31
2022/07/09 03:34:56;;;;;;;13.82;7.00;;;;;;;17.94;87.80;102707.16;4975716;28;20047;-29
2022/07/09 03:37:21;;;;;;;14.20;7.13;;;;;;;17.95;87.91;102693.31;4973812;28;20027;-31
2022/07/09 03:39:47;;;;;;;15.45;6.97;;;;;;;17.98;87.77;102698.44;4975433;28;20085;-31
2022/07/09 03:42:13;;;;;;;11.30;6.85;;;;;;;17.99;87.60;102700.09;4975468;28;20494;-30
2022/07/09 03:44:39;;;;;;;13.55;7.50;;;;;;;18.01;87.80;102696.34;4977090;28;20033;-31
2022/07/09 03:47:05;;;;;;;20.52;8.00;;;;;;;18.01;87.95;102702.66;4974041;28;20039;-30
2022/07/09 03:49:30;;;;;;;15.25;7.05;;;;;;;18.03;88.03;102700.56;4974450;28;20118;-30
2022/07/09 03:51:55;;;;;;;18.33;8.02;;;;;;;18.03;87.84;102706.00;4974092;28;20573;-31
2022/07/09 03:54:21;;;;;;;13.73;6.95;;;;;;;18.05;87.90;102708.56;4974867;28;20482;-30
2022/07/09 03:56:46;;;;;;;17.45;7.28;;;;;;;18.09;87.96;102709.88;4974971;28;20031;-30
2022/07/09 03:59:11;;;;;;;13.38;6.88;;;;;;;18.10;88.10;102706.13;4974396;28;20031;-31
2022/07/09 04:01:37;;;;;;;17.98;7.68;;;;;;;18.11;87.93;102699.63;4974710;28;20027;-30
2022/07/09 04:04:03;;;;;;;14.88;7.57;;;;;;;18.14;87.88;102716.47;4975147;28;20026;-31
2022/07/09 04:06:29;;;;;;;13.57;6.78;;;;;;;18.20;87.70;102713.00;4975081;28;20038;-31
2022/07/09 04:08:55;;;;;;;12.38;6.50;;;;;;;18.24;87.37;102707.16;4975497;28;20077;-30
2022/07/09 04:11:20;;;;;;;17.70;6.90;;;;;;;18.26;87.16;102702.38;4975460;28;20102;-30
2022/07/09 04:13:46;;;;;;;17.85;6.22;;;;;;;18.28;87.24;102703.88;4974255;28;20458;-31
2022/07/09 04:16:11;;;;;;;18.55;6.95;;;;;;;18.29;87.25;102699.28;4974930;28;20027;-30
2022/07/09 04:18:36;;;;;;;12.75;6.95;;;;;;;18.28;86.75;102711.22;4975655;28;20059;-30
2022/07/09 04:21:02;;;;;;;15.45;6.75;;;;;;;18.27;86.33;102707.63;4975513;28;20483;-31
2022/07/09 04:23:27;;;;;;;14.48;6.68;;;;;;;18.27;86.33;102704.91;4974938;28;20094;-29
2022/07/09 04:25:53;;;;;;;16.92;6.97;;;;;;;18.29;85.96;102704.72;4974307;28;20039;-29
2022/07/09 04:28:19;;;;;;;15.05;7.18;;;;;;;18.26;86.26;102702.38;4974432;28;20081;-29
2022/07/09 04:30:45;;;;;;;15.23;9.13;;;;;;;18.24;85.87;102709.91;4976132;28;20051;-29
2022/07/09 04:33:11;;;;;;;15.77;10.27;;;;;;;18.25;85.56;102703.44;4973818;28;20031;-29
2022/07/09 04:35:36;;;;;;;15.00;9.70;;;;;;;18.24;85.51;102708.00;4976686;28;20109;-29
2022/07/09 04:38:02;;;;;;;18.40;11.23;;;;;;;18.22;85.56;102701.94;4974776;28;20018;-29
2022/07/09 04:40:28;;;;;;;21.88;12.90;;;;;;;18.27;85.59;102706.78;4974327;28;20039;-30
2022/07/09 04:42:53;;;;;;;18.55;12.05;;;;;;;18.25;85.93;102703.44;4974417;28;20029;-29
2022/07/09 04:45:18;;;;;;;18.42;11.95;;;;;;;18.28;86.24;102708.50;4974220;28;20065;-29
2022/07/09 04:47:44;;;;;;;21.08;13.32;;;;;;;18.30;85.98;102701.81;4974283;28;20237;-29
2022/07/09 04:50:10;;;;;;;24.63;13.32;;;;;;;18.33;85.77;102695.16;4974421;28;20455;-30
2022/07/09 04:52:36;;;;;;;24.88;13.95;;;;;;;18.35;85.80;102695.78;4974401;28;20482;-30
2022/07/09 04:55:02;;;;;;;23.08;14.55;;;;;;;18.40;85.26;102685.16;4974078;28;20057;-29
2022/07/09 04:57:28;;;;;;;22.27;13.27;;;;;;;18.44;85.49;102681.03;4973649;28;20126;-30
2022/07/09 04:59:58;;;;;;;23.77;14.63;;;;;;;18.48;84.83;102682.34;4974231;28;20467;-29
2022/07/09 05:02:23;;;;;;;26.40;14.93;;;;;;;18.50;84.38;102680.28;4973965;28;20035;-29
2022/07/09 05:04:48;;;;;;;22.27;13.65;;;;;;;18.55;84.46;102677.81;4973802;28;20113;-31
2022/07/09 05:07:13;;;;;;;25.33;15.18;;;;;;;18.63;83.68;102674.16;4974114;28;20154;-32
2022/07/09 05:09:39;;;;;;;22.58;13.77;;;;;;;18.66;83.13;102668.31;4973199;28;20051;-29
2022/07/09 05:12:04;;;;;;;21.40;14.40;;;;;;;18.73;83.28;102677.41;4974370;28;20077;-29
2022/07/09 05:14:30;;;;;;;22.67;13.48;;;;;;;18.76;82.86;102676.22;4973323;28;20049;-29
2022/07/09 05:16:55;;;;;;;28.52;14.63;;;;;;;18.80;81.75;102680.25;4973872;28;20031;-29
2022/07/09 05:19:20;;;;;;;22.38;14.00;;;;;;;18.83;81.33;102679.88;4972491;28;20029;-29
2022/07/09 05:21:46;;;;;;;28.40;15.20;;;;;;;18.85;81.01;102677.78;4973586;28;20397;-31
2022/07/09 05:24:11;;;;;;;31.65;13.60;;;;;;;18.80;81.53;102681.09;4973637;28;20045;-30
2022/07/09 05:26:36;;;;;;;17.05;12.77;;;;;;;18.83;81.21;102680.72;4974107;28;20023;-30
2022/07/09 05:29:03;;;;;;;31.48;13.75;;;;;;;18.95;81.17;102678.31;4973261;28;20023;-30
2022/07/09 05:31:28;;;;;;;21.27;13.57;;;;;;;19.01;81.21;102666.66;4973065;28;20034;-30
2022/07/09 05:33:53;;;;;;;21.83;12.00;;;;;;;19.15;80.77;102677.72;4972656;28;20113;-29
2022/07/09 05:36:19;;;;;;;21.27;11.48;;;;;;;19.11;79.87;102677.22;4973655;28;20053;-30
2022/07/09 05:38:45;;;;;;;17.27;10.45;;;;;;;19.13;79.98;102679.78;4972420;28;20035;-31
2022/07/09 05:41:11;;;;;;;17.73;9.88;;;;;;;19.13;79.86;102685.25;4969322;28;20022;-30
2022/07/09 05:43:36;;;;;;;19.55;9.27;;;;;;;19.03;79.77;102689.13;4972954;28;20037;-30
2022/07/09 05:46:02;;;;;;;19.77;8.57;;;;;;;19.02;79.71;102695.63;4973377;28;20023;-30
2022/07/09 05:48:27;;;;;;;12.60;7.05;;;;;;;19.00;79.54;102697.69;4973079;28;20126;-32
2022/07/09 05:50:54;;;;;;;15.70;6.22;;;;;;;19.05;79.54;102697.13;4971065;28;20127;-30
2022/07/09 05:53:20;;;;;;;10.00;5.70;;;;;;;19.07;78.98;102689.59;4972828;28;20055;-29
2022/07/09 05:55:46;;;;;;;8.93;4.95;;;;;;;19.06;78.71;102687.88;4973019;28;20061;-30
2022/07/09 05:58:11;;;;;;;12.70;4.38;;;;;;;19.11;78.42;102695.50;4973693;28;20023;-29
2022/07/09 06:00:37;;;;;;;10.10;3.80;;;;;;;19.21;78.52;102690.56;4972993;28;20421;-30
2022/07/09 06:03:02;;;;;;;6.53;3.00;;;;;;;19.45;78.43;102690.16;4971480;28;20037;-30
2022/07/09 06:05:28;;;;;;;5.75;2.80;;;;;;;19.58;76.63;102694.06;4972480;28;20379;-30
2022/07/09 06:07:53;;;;;;;7.60;2.13;;;;;;;19.69;75.22;102701.75;4973120;28;20057;-30
2022/07/09 06:10:19;;;;;;;6.22;2.00;;;;;;;19.68;74.00;102694.59;4973122;28;20386;-31
2022/07/09 06:12:44;;;;;;;4.65;1.77;;;;;;;19.69;73.27;102686.19;4969488;28;20429;-31
2022/07/09 06:15:11;;;;;;;3.28;1.80;;;;;;;19.71;73.05;102696.94;4971877;28;20169;-29
2022/07/09 06:17:36;;;;;;;4.57;2.10;;;;;;;19.81;72.13;102694.72;4972182;28;20506;-29
2022/07/09 06:20:02;;;;;;;5.28;1.73;;;;;;;19.86;72.25;102699.59;4972920;28;20166;-31
2022/07/09 06:22:27;;;;;;;4.47;1.75;;;;;;;19.85;71.49;102689.69;4973404;28;20054;-30
2022/07/09 06:24:52;;;;;;;3.53;1.75;;;;;;;20.02;71.40;102702.00;4972221;28;20074;-30
2022/07/09 06:27:18;;;;;;;2.00;1.38;;;;;;;20.36;70.09;102705.81;4972956;28;20035;-30
2022/07/09 06:29:43;;;;;;;4.15;1.45;;;;;;;20.81;68.55;102700.78;4972938;28;20035;-30
2022/07/09 06:32:08;;;;;;;3.38;1.30;;;;;;;21.17;67.50;102707.81;4972040;28;20483;-30
2022/07/09 06:34:34;;;;;;;3.33;1.80;;;;;;;21.29;66.07;102714.38;4971839;28;20043;-29
2022/07/09 06:36:59;;;;;;;2.95;1.48;;;;;;;21.22;66.00;102710.78;4972533;28;20026;-30
2022/07/09 06:42:08;;;;;;;3.35;1.23;;;;;;;21.43;64.91;102712.53;4970012;28;20042;-30
2022/07/09 06:44:34;;;;;;;4.85;1.35;;;;;;;21.62;64.72;102722.69;4972487;28;20502;-29
2022/07/09 06:47:00;;;;;;;2.97;1.38;;;;;;;21.50;64.79;102726.25;4972125;28;20098;-29
2022/07/09 06:49:25;;;;;;;6.88;1.33;;;;;;;21.36;65.67;102720.72;4973202;28;20074;-30
2022/07/09 06:51:50;;;;;;;4.07;1.27;;;;;;;21.36;65.53;102722.63;4974046;28;20038;-30
2022/07/09 06:54:16;;;;;;;4.10;1.20;;;;;;;21.13;66.07;102718.34;4973126;28;20102;-29
2022/07/09 06:56:41;;;;;;;4.50;1.40;;;;;;;21.07;66.08;102724.66;4973698;28;20034;-30
2022/07/09 06:59:07;;;;;;;5.88;1.63;;;;;;;21.11;66.58;102728.66;4973544;28;20058;-29
2022/07/09 07:01:32;;;;;;;8.75;1.50;;;;;;;21.06;66.69;102736.63;4972647;28;20038;-30
2022/07/09 07:03:58;;;;;;;4.15;1.38;;;;;;;21.18;66.43;102734.16;4971827;28;20131;-30
2022/07/09 07:06:23;;;;;;;3.85;1.38;;;;;;;20.98;66.87;102731.34;4973232;28;20086;-28
2022/07/09 07:08:50;;;;;;;3.80;1.40;;;;;;;20.94;67.59;102738.31;4973100;28;20061;-30
2022/07/09 07:11:15;;;;;;;5.10;1.48;;;;;;;20.96;67.21;102741.69;4973208;28;20058;-28
2022/07/09 07:13:40;;;;;;;5.90;1.50;;;;;;;20.81;67.48;102739.09;4973388;28;20050;-29
2022/07/09 07:16:06;;;;;;;5.65;2.00;;;;;;;20.72;67.70;102748.50;4972642;28;20481;-30
2022/07/09 07:18:31;;;;;;;3.92;1.52;;;;;;;20.50;68.59;102750.47;4972333;28;20497;-28
2022/07/09 07:20:57;;;;;;;6.72;1.40;;;;;;;20.33;68.72;102756.28;4967952;28;20026;-30
2022/07/09 07:23:22;;;;;;;6.85;1.30;;;;;;;20.29;69.23;102757.69;4971958;28;20101;-31
2022/07/09 07:25:47;;;;;;;4.82;1.60;;;;;;;20.27;68.98;102748.84;4971573;28;20458;-28
2022/07/09 07:28:13;;;;;;;9.00;1.52;;;;;;;20.08;68.57;102744.94;4972123;28;20133;-28
2022/07/09 07:30:38;;;;;;;4.90;1.45;;;;;;;19.90;68.56;102753.63;4972546;28;20066;-29
2022/07/09 07:33:04;;;;;;;5.25;1.55;;;;;;;19.87;69.27;102759.50;4972236;28;20078;-28
2022/07/09 07:35:29;;;;;;;8.00;1.63;;;;;;;19.87;68.74;102761.38;4972109;28;20066;-31
2022/07/09 07:37:56;;;;;;;7.22;1.70;;;;;;;19.80;68.92;102758.59;4972252;28;20126;-30
2022/07/09 07:40:22;;;;;;;8.90;1.33;;;;;;;19.70;69.67;102753.47;4971947;28;20117;-30
2022/07/09 07:42:47;;;;;;;4.75;1.58;;;;;;;19.72;70.03;102756.00;4973748;28;20118;-29
2022/07/09 07:45:12;;;;;;;4.82;1.35;;;;;;;19.86;69.19;102756.97;4973505;28;20394;-29
2022/07/09 07:47:39;;;;;;;7.82;1.65;;;;;;;20.11;68.12;102750.00;4973745;28;20051;-29
2022/07/09 07:50:05;;;;;;;2.58;1.10;;;;;;;20.15;67.87;102750.47;4974363;28;20120;-29
2022/07/09 07:52:31;;;;;;;5.60;1.27;;;;;;;20.33;67.26;102748.06;4972674;28;20046;-29
2022/07/09 07:54:56;;;;;;;7.65;1.60;;;;;;;20.38;66.80;102750.22;4981282;28;20027;-30
2022/07/09 07:57:21;;;;;;;4.85;1.65;;;;;;;20.53;66.10;102758.28;4973770;28;20030;-29
2022/07/09 07:59:47;;;;;;;5.10;1.30;;;;;;;20.57;65.71;102762.34;4973535;28;20489;-29
2022/07/09 08:02:12;;;;;;;7.00;1.30;;;;;;;20.59;65.56;102746.56;4973309;28;20118;-30
2022/07/09 08:04:37;;;;;;;6.85;1.60;;;;;;;20.91;65.30;102745.03;4972060;28;20045;-29
2022/07/09 08:07:03;;;;;;;5.47;1.35;;;;;;;21.59;64.11;102750.50;4974872;28;20085;-29
2022/07/09 08:09:29;;;;;;;3.85;1.02;;;;;;;22.37;61.73;102747.09;4974458;28;20030;-30
2022/07/09 08:11:54;;;;;;;4.95;1.40;;;;;;;23.48;56.63;102747.88;4975164;28;20038;-29
2022/07/09 08:14:20;;;;;;;6.22;1.42;;;;;;;23.88;55.11;102741.06;4973119;28;20059;-29
2022/07/09 08:16:45;;;;;;;3.63;1.10;;;;;;;23.92;54.61;102746.94;4974899;28;20026;-30
2022/07/09 08:19:11;;;;;;;3.78;1.20;;;;;;;24.06;54.54;102742.13;4972744;28;20027;-29
2022/07/09 08:21:36;;;;;;;5.53;1.40;;;;;;;24.51;53.78;102747.41;4974433;28;20647;-30
2022/07/09 08:24:04;;;;;;;5.22;1.10;;;;;;;24.92;51.35;102752.22;4974021;28;20498;-29
2022/07/09 08:26:30;;;;;;;7.03;1.40;;;;;;;25.18;50.40;102747.44;4973978;28;20459;-31
2022/07/09 08:28:56;;;;;;;5.63;1.13;;;;;;;25.03;50.15;102758.00;4973525;28;20026;-30
2022/07/09 08:31:22;;;;;;;2.28;1.08;;;;;;;24.79;49.40;102740.53;4974727;28;20035;-30
2022/07/09 08:33:48;;;;;;;4.03;1.02;;;;;;;24.23;50.94;102748.75;4974134;28;20104;-30
2022/07/09 08:36:13;;;;;;;5.18;1.25;;;;;;;24.32;52.05;102743.78;4973447;28;20339;-30
2022/07/09 08:38:39;;;;;;;5.32;1.10;;;;;;;25.16;49.63;102753.19;4973825;28;20378;-30
2022/07/09 08:41:05;;;;;;;7.22;1.02;;;;;;;25.99;48.61;102751.47;4973848;28;20085;-30
2022/07/09 08:43:35;;;;;;;5.20;1.00;;;;;;;26.69;45.76;102746.97;4974357;28;20503;-30
2022/07/09 08:46:01;;;;;;;3.45;0.98;;;;;;;27.02;44.49;102743.50;4973748;28;20077;-30
2022/07/09 08:48:27;;;;;;;2.47;0.93;;;;;;;27.51;43.63;102752.16;4973976;28;20125;-30
2022/07/09 08:50:52;;;;;;;4.10;1.20;;;;;;;27.64;42.36;102753.78;4973793;28;20015;-30
2022/07/09 08:53:18;;;;;;;3.95;0.80;;;;;;;27.88;41.95;102751.69;4973583;28;20544;-30
2022/07/09 08:55:47;;;;;;;3.72;1.00;;;;;;;27.18;43.54;102750.22;4972997;28;20034;-30
2022/07/09 08:58:13;;;;;;;1.27;0.70;;;;;;;27.14;43.82;102751.75;4973433;28;20393;-30
2022/07/09 09:00:40;;;;;;;2.07;0.80;;;;;;;27.74;41.86;102745.66;4971991;28;20027;-30
2022/07/09 09:03:05;;;;;;;2.45;0.80;;;;;;;27.63;41.86;102746.56;4967598;28;20369;-30
2022/07/09 09:05:31;;;;;;;3.90;1.17;;;;;;;27.93;41.70;102742.66;4972706;28;20113;-30
2022/07/09 09:07:56;;;;;;;5.43;1.35;;;;;;;28.35;40.76;102742.16;4972497;28;20546;-30
2022/07/09 09:10:26;;;;;;;4.40;1.20;;;;;;;28.19;40.88;102744.72;4972856;28;20463;-30
2022/07/09 09:12:58;;;;;;;4.90;1.15;;;;;;;28.36;41.33;102732.78;4971996;28;20545;-30
2022/07/09 09:15:24;;;;;;;2.35;0.80;;;;;;;28.69;40.44;102731.00;4973644;28;20450;-31
2022/07/09 09:17:49;;;;;;;2.95;0.90;;;;;;;29.08;38.41;102738.13;4974544;28;20031;-31
2022/07/09 09:20:16;;;;;;;1.77;0.70;;;;;;;28.78;38.80;102740.50;4972004;28;20046;-30
2022/07/09 09:22:59;;;;;;;1.30;0.70;;;;;;;28.60;38.49;102747.25;4976131;28;20030;-31
2022/07/09 09:25:25;;;;;;;2.58;1.08;;;;;;;28.69;38.64;102747.63;4973940;28;20034;-30
2022/07/09 09:27:58;;;;;;;2.08;0.82;;;;;;;28.69;39.15;102748.44;4974207;28;20658;-30
2022/07/09 09:30:25;;;;;;;6.20;0.65;;;;;;;29.06;36.35;102754.16;4973867;28;20102;-30
2022/07/09 09:32:59;;;;;;;2.42;0.90;;;;;;;28.79;36.70;102761.59;4973156;28;20054;-30
2022/07/09 09:35:26;;;;;;;1.15;0.75;;;;;;;28.96;37.01;102762.34;4972283;28;20498;-30
2022/07/09 09:37:53;;;;;;;1.77;0.82;;;;;;;29.23;35.92;102761.56;4972486;28;20034;-31
2022/07/09 09:40:18;;;;;;;2.00;0.70;;;;;;;29.13;36.11;102751.22;4973014;28;20027;-30
2022/07/09 09:42:43;;;;;;;2.40;0.82;;;;;;;29.29;35.81;102758.56;4972245;28;20039;-31
2022/07/09 09:45:11;;;;;;;1.48;0.80;;;;;;;29.00;35.95;102763.50;4971451;28;20038;-30
2022/07/09 09:47:37;;;;;;;1.77;0.70;;;;;;;28.67;36.98;102761.72;4970856;28;20034;-30
2022/07/09 09:50:02;;;;;;;0.75;0.50;;;;;;;29.22;34.39;102765.44;4974713;28;20462;-30
2022/07/09 09:52:29;;;;;;;1.45;0.68;;;;;;;29.42;34.01;102767.59;4976473;28;20042;-30
2022/07/09 09:54:54;;;;;;;;;;;;;;;29.37;33.06;102762.81;4972549;28;20018;-30
2022/07/09 09:57:24;;;;;;;2.57;0.57;;;;;;;28.86;34.16;102763.09;4972790;28;20053;-30
2022/07/09 09:59:52;;;;;;;1.52;0.77;;;;;;;28.53;35.61;102772.34;4971568;28;20035;-30
2022/07/09 10:02:19;;;;;;;2.30;1.10;;;;;;;29.18;34.01;102764.28;4971692;28;20058;-30
2022/07/09 10:04:44;;;;;;;1.75;0.52;;;;;;;28.94;34.63;102761.78;4970876;28;20142;-30
2022/07/09 10:07:12;;;;;;;1.25;0.60;;;;;;;28.43;36.00;102758.31;4972617;28;20034;-30
2022/07/09 10:09:37;;;;;;;;;;;;;;;27.40;37.69;102763.31;4972776;28;20356;-30
2022/07/09 10:12:03;;;;;;;3.53;0.80;;;;;;;26.70;39.96;102765.25;4972649;28;19924;-31
2022/07/09 10:14:28;;;;;;;4.97;1.00;;;;;;;26.35;40.36;102773.53;4972450;28;20031;-30
2022/07/09 10:16:54;;;;;;;5.80;1.73;;;;;;;25.91;41.87;102773.91;4971857;28;20105;-30
2022/07/09 10:19:30;;;;;;;3.65;0.90;;;;;;;26.17;42.45;102774.50;4971781;28;20286;-30
2022/07/09 10:21:57;;;;;;;2.80;0.93;;;;;;;26.19;41.33;102777.88;4969957;28;20014;-30
2022/07/09 10:24:29;;;;;;;3.13;1.10;;;;;;;25.79;41.92;102779.38;4973738;28;20062;-30
2022/07/09 10:27:07;;;;;;;6.40;1.25;;;;;;;25.29;44.29;102779.72;4978412;28;20030;-30
2022/07/09 10:29:34;;;;;;;4.32;1.38;;;;;;;25.08;44.95;102778.28;4976823;28;20122;-30
2022/07/09 10:32:01;;;;;;;5.43;1.20;;;;;;;24.87;46.40;102768.59;4979696;28;20086;-30
2022/07/09 10:34:48;;;;;;;8.45;1.50;;;;;;;24.96;47.04;102771.84;4976786;28;20057;-30
2022/07/09 10:37:13;;;;;;;4.72;1.40;;;;;;;24.48;48.70;102767.13;4979114;28;20454;-29
2022/07/09 10:39:39;;;;;;;5.82;1.20;;;;;;;24.53;48.47;102776.38;4977601;28;20074;-30
2022/07/09 10:42:21;;;;;;;5.47;1.65;;;;;;;23.95;49.38;102776.72;4978776;28;20109;-30
2022/07/09 10:44:49;;;;;;;9.32;1.33;;;;;;;23.60;50.18;102770.84;4977858;28;20031;-29
2022/07/09 10:47:14;;;;;;;5.55;1.40;;;;;;;23.58;49.88;102768.31;4978086;28;20030;-30
2022/07/09 10:49:40;;;;;;;6.93;1.65;;;;;;;23.53;49.92;102778.28;4979094;28;20471;-30
2022/07/09 10:52:06;;;;;;;12.98;1.67;;;;;;;23.76;49.99;102781.31;4978676;28;20135;-30
2022/07/09 10:54:31;;;;;;;5.85;1.70;;;;;;;24.45;48.37;102781.38;4978925;28;20336;-30
2022/07/09 10:56:57;;;;;;;5.65;1.45;;;;;;;24.51;48.12;102792.31;4977766;28;20524;-29
2022/07/09 10:59:24;;;;;;;8.30;1.40;;;;;;;24.26;47.56;102781.31;4978723;28;20026;-30
2022/07/09 11:01:52;;;;;;;5.27;1.40;;;;;;;24.32;46.43;102791.41;4978813;28;20030;-30
2022/07/09 11:04:28;;;;;;;9.13;1.40;;;;;;;24.81;45.48;102790.72;4979247;28;20377;-30
2022/07/09 11:06:54;;;;;;;5.18;1.30;;;;;;;24.59;45.46;102787.56;4978714;28;20474;-29
2022/07/09 11:09:19;;;;;;;6.57;1.48;;;;;;;23.97;48.07;102798.50;4978923;28;20163;-30
2022/07/09 11:11:46;;;;;;;9.00;1.55;;;;;;;23.62;48.69;102799.81;4978488;28;20050;-30
2022/07/09 11:14:12;;;;;;;6.68;1.40;;;;;;;23.81;48.31;102800.75;4977950;28;20065;-29
2022/07/09 11:16:37;;;;;;;7.68;1.63;;;;;;;24.28;47.72;102801.19;4978573;28;20058;-30